sensor_id;sensor_type;location;lat;lon;timestamp;temperature;humidity
36352;DHT22;22382;44.768;17.206;2024-03-23T00:55:33;9.10;99.90
36352;DHT22;22382;44.768;17.206;2024-03-23T00:58:00;9.00;99.90
36352;DHT22;22382;44.768;17.206;2024-03-23T01:00:26;8.90;99.90
36352;DHT22;22382;44.768;17.206;2024-03-23T01:02:52;8.90;99.90
36352;DHT22;22382;44.768;17.206;2024-03-23T01:05:19;8.80;99.90
36352;DHT22;22382;44.768;17.206;2024-03-23T01:07:45;8.90;99.90
36352;DHT22;22382;44.768;17.206;2024-03-23T01:10:11;8.90;99.90
36352;DHT22;22382;44.768;17.206;2024-03-23T01:12:37;8.90;99.90
36352;DHT22;22382;44.768;17.206;2024-03-23T01:15:03;8.90;99.90
36352;DHT22;22382;44.768;17.206;2024-03-23T01:17:29;8.80;99.90
36352;DHT22;22382;44.768;17.206;2024-03-23T01:19:56;8.70;99.90
36352;DHT22;22382;44.768;17.206;2024-03-23T01:22:22;8.70;99.90
36352;DHT22;22382;44.768;17.206;2024-03-23T01:24:48;8.70;99.90
36352;DHT22;22382;44.768;17.206;2024-03-23T01:27:14;8.70;99.90
36352;DHT22;22382;44.768;17.206;2024-03-23T01:29:40;8.70;99.90
36352;DHT22;22382;44.768;17.206;2024-03-23T01:32:06;8.80;99.90
36352;DHT22;22382;44.768;17.206;2024-03-23T01:34:33;8.80;99.90
36352;DHT22;22382;44.768;17.206;2024-03-23T01:36:59;8.70;99.90
36352;DHT22;22382;44.768;17.206;2024-03-23T01:39:25;8.70;99.90
36352;DHT22;22382;44.768;17.206;2024-03-23T01:41:51;8.70;99.90
36352;DHT22;22382;44.768;17.206;2024-03-23T01:44:18;8.60;99.90
36352;DHT22;22382;44.768;17.206;2024-03-23T01:46:44;8.50;99.90
36352;DHT22;22382;44.768;17.206;2024-03-23T01:49:12;8.50;99.90
36352;DHT22;22382;44.768;17.206;2024-03-23T01:51:38;8.50;99.90
36352;DHT22;22382;44.768;17.206;2024-03-23T01:54:06;8.60;99.90
36352;DHT22;22382;44.768;17.206;2024-03-23T01:56:33;8.60;99.90
36352;DHT22;22382;44.768;17.206;2024-03-23T01:59:06;8.60;99.90
36352;DHT22;22382;44.768;17.206;2024-03-23T02:01:33;8.70;99.90
36352;DHT22;22382;44.768;17.206;2024-03-23T02:04:00;8.60;99.90
36352;DHT22;22382;44.768;17.206;2024-03-23T02:06:26;8.50;99.90
36352;DHT22;22382;44.768;17.206;2024-03-23T02:08:54;8.50;99.90
36352;DHT22;22382;44.768;17.206;2024-03-23T02:11:20;8.50;99.90
36352;DHT22;22382;44.768;17.206;2024-03-23T02:13:46;8.50;99.90
36352;DHT22;22382;44.768;17.206;2024-03-23T02:16:13;8.40;99.90
36352;DHT22;22382;44.768;17.206;2024-03-23T02:18:42;8.30;99.90
36352;DHT22;22382;44.768;17.206;2024-03-23T02:21:08;8.30;99.90
36352;DHT22;22382;44.768;17.206;2024-03-23T02:23:34;8.40;99.90
36352;DHT22;22382;44.768;17.206;2024-03-23T02:26:00;8.50;99.90
36352;DHT22;22382;44.768;17.206;2024-03-23T02:28:26;8.50;99.90
36352;DHT22;22382;44.768;17.206;2024-03-23T02:30:52;8.50;99.90
36352;DHT22;22382;44.768;17.206;2024-03-23T02:33:18;8.50;99.90
36352;DHT22;22382;44.768;17.206;2024-03-23T02:35:45;8.50;99.90
36352;DHT22;22382;44.768;17.206;2024-03-23T02:38:12;8.30;99.90
36352;DHT22;22382;44.768;17.206;2024-03-23T02:40:38;8.30;99.90
36352;DHT22;22382;44.768;17.206;2024-03-23T02:43:04;8.30;99.90
36352;DHT22;22382;44.768;17.206;2024-03-23T02:45:31;8.30;99.90
36352;DHT22;22382;44.768;17.206;2024-03-23T02:47:57;8.20;99.90
36352;DHT22;22382;44.768;17.206;2024-03-23T02:50:23;8.20;99.90
36352;DHT22;22382;44.768;17.206;2024-03-23T02:52:49;8.10;99.90
36352;DHT22;22382;44.768;17.206;2024-03-23T02:55:15;8.00;99.90
36352;DHT22;22382;44.768;17.206;2024-03-23T02:57:41;8.10;99.90
36352;DHT22;22382;44.768;17.206;2024-03-23T03:00:08;8.10;99.90
36352;DHT22;22382;44.768;17.206;2024-03-23T03:02:35;8.10;99.90
36352;DHT22;22382;44.768;17.206;2024-03-23T03:05:01;8.10;99.90
36352;DHT22;22382;44.768;17.206;2024-03-23T03:07:27;8.00;99.90
36352;DHT22;22382;44.768;17.206;2024-03-23T03:09:53;8.00;99.90
36352;DHT22;22382;44.768;17.206;2024-03-23T03:12:19;8.00;99.90
36352;DHT22;22382;44.768;17.206;2024-03-23T03:14:45;8.00;99.90
36352;DHT22;22382;44.768;17.206;2024-03-23T03:17:11;8.00;99.90
36352;DHT22;22382;44.768;17.206;2024-03-23T03:19:38;8.00;99.90
36352;DHT22;22382;44.768;17.206;2024-03-23T03:22:04;7.90;99.90
36352;DHT22;22382;44.768;17.206;2024-03-23T03:24:30;7.90;99.90
36352;DHT22;22382;44.768;17.206;2024-03-23T03:26:56;7.90;99.90
36352;DHT22;22382;44.768;17.206;2024-03-23T03:29:24;7.80;99.90
36352;DHT22;22382;44.768;17.206;2024-03-23T03:31:50;7.80;99.90
36352;DHT22;22382;44.768;17.206;2024-03-23T03:34:16;7.80;99.90
36352;DHT22;22382;44.768;17.206;2024-03-23T03:36:42;7.90;99.90
36352;DHT22;22382;44.768;17.206;2024-03-23T03:39:09;7.90;99.90
36352;DHT22;22382;44.768;17.206;2024-03-23T03:41:35;7.90;99.90
36352;DHT22;22382;44.768;17.206;2024-03-23T03:44:01;7.90;99.90
36352;DHT22;22382;44.768;17.206;2024-03-23T03:46:28;7.80;99.90
36352;DHT22;22382;44.768;17.206;2024-03-23T03:48:54;7.80;99.90
36352;DHT22;22382;44.768;17.206;2024-03-23T03:51:21;7.80;99.90
36352;DHT22;22382;44.768;17.206;2024-03-23T03:53:47;7.80;99.90
36352;DHT22;22382;44.768;17.206;2024-03-23T03:56:13;7.80;99.90
36352;DHT22;22382;44.768;17.206;2024-03-23T03:58:39;7.80;99.90
36352;DHT22;22382;44.768;17.206;2024-03-23T04:01:08;7.80;99.90
36352;DHT22;22382;44.768;17.206;2024-03-23T04:03:34;7.80;99.90
36352;DHT22;22382;44.768;17.206;2024-03-23T04:06:00;7.80;99.90
36352;DHT22;22382;44.768;17.206;2024-03-23T04:08:26;7.80;99.90
36352;DHT22;22382;44.768;17.206;2024-03-23T04:10:52;7.80;99.90
36352;DHT22;22382;44.768;17.206;2024-03-23T04:13:18;7.80;99.90
36352;DHT22;22382;44.768;17.206;2024-03-23T04:15:44;7.80;99.90
36352;DHT22;22382;44.768;17.206;2024-03-23T04:18:11;7.80;99.90
36352;DHT22;22382;44.768;17.206;2024-03-23T04:20:37;7.70;99.90
36352;DHT22;22382;44.768;17.206;2024-03-23T04:23:03;7.60;99.90
36352;DHT22;22382;44.768;17.206;2024-03-23T04:25:29;7.60;99.90
36352;DHT22;22382;44.768;17.206;2024-03-23T04:27:55;7.60;99.90
36352;DHT22;22382;44.768;17.206;2024-03-23T04:30:22;7.50;99.90
36352;DHT22;22382;44.768;17.206;2024-03-23T04:32:50;7.50;99.90
36352;DHT22;22382;44.768;17.206;2024-03-23T04:35:17;7.50;99.90
36352;DHT22;22382;44.768;17.206;2024-03-23T04:37:43;7.50;99.90
36352;DHT22;22382;44.768;17.206;2024-03-23T04:40:09;7.50;99.90
36352;DHT22;22382;44.768;17.206;2024-03-23T04:42:37;7.60;99.90
36352;DHT22;22382;44.768;17.206;2024-03-23T04:45:04;7.70;99.90
36352;DHT22;22382;44.768;17.206;2024-03-23T04:47:32;7.60;99.90
36352;DHT22;22382;44.768;17.206;2024-03-23T04:49:58;7.60;99.90
36352;DHT22;22382;44.768;17.206;2024-03-23T04:52:24;7.70;99.90
36352;DHT22;22382;44.768;17.206;2024-03-23T04:54:50;7.80;99.90
36352;DHT22;22382;44.768;17.206;2024-03-23T04:57:16;7.80;99.90
36352;DHT22;22382;44.768;17.206;2024-03-23T04:59:42;7.80;99.90
36352;DHT22;22382;44.768;17.206;2024-03-23T05:02:08;7.80;99.90
36352;DHT22;22382;44.768;17.206;2024-03-23T05:04:35;7.80;99.90
36352;DHT22;22382;44.768;17.206;2024-03-23T05:07:03;7.90;99.90
36352;DHT22;22382;44.768;17.206;2024-03-23T05:09:30;7.90;99.90
36352;DHT22;22382;44.768;17.206;2024-03-23T05:11:56;7.90;99.90
36352;DHT22;22382;44.768;17.206;2024-03-23T05:14:22;8.00;99.90
36352;DHT22;22382;44.768;17.206;2024-03-23T05:16:49;8.00;99.90
36352;DHT22;22382;44.768;17.206;2024-03-23T05:19:15;8.10;99.90
36352;DHT22;22382;44.768;17.206;2024-03-23T05:21:41;8.10;99.90
36352;DHT22;22382;44.768;17.206;2024-03-23T05:24:07;8.20;99.90
36352;DHT22;22382;44.768;17.206;2024-03-23T05:26:33;8.30;99.90
36352;DHT22;22382;44.768;17.206;2024-03-23T05:29:00;8.40;99.90
36352;DHT22;22382;44.768;17.206;2024-03-23T05:31:27;8.40;99.90
36352;DHT22;22382;44.768;17.206;2024-03-23T05:33:53;8.40;99.90
36352;DHT22;22382;44.768;17.206;2024-03-23T05:36:19;8.40;99.90
36352;DHT22;22382;44.768;17.206;2024-03-23T05:38:45;8.60;99.90
36352;DHT22;22382;44.768;17.206;2024-03-23T05:41:11;8.80;99.90
36352;DHT22;22382;44.768;17.206;2024-03-23T05:43:37;8.90;99.90
36352;DHT22;22382;44.768;17.206;2024-03-23T05:46:04;9.10;99.90
36352;DHT22;22382;44.768;17.206;2024-03-23T05:48:36;9.20;99.90
36352;DHT22;22382;44.768;17.206;2024-03-23T05:51:02;9.40;99.90
36352;DHT22;22382;44.768;17.206;2024-03-23T05:53:28;9.40;99.90
36352;DHT22;22382;44.768;17.206;2024-03-23T05:56:03;9.40;99.90
36352;DHT22;22382;44.768;17.206;2024-03-23T05:58:35;9.50;99.90
36352;DHT22;22382;44.768;17.206;2024-03-23T06:01:02;9.50;99.90
36352;DHT22;22382;44.768;17.206;2024-03-23T06:03:28;9.70;99.90
36352;DHT22;22382;44.768;17.206;2024-03-23T06:05:55;9.80;99.90
36352;DHT22;22382;44.768;17.206;2024-03-23T06:08:22;10.00;99.90
36352;DHT22;22382;44.768;17.206;2024-03-23T06:10:50;10.10;99.90
36352;DHT22;22382;44.768;17.206;2024-03-23T06:13:16;10.20;99.90
36352;DHT22;22382;44.768;17.206;2024-03-23T06:15:43;10.30;99.90
36352;DHT22;22382;44.768;17.206;2024-03-23T06:18:11;10.40;99.90
36352;DHT22;22382;44.768;17.206;2024-03-23T06:20:38;10.30;99.90
36352;DHT22;22382;44.768;17.206;2024-03-23T06:23:04;10.50;99.90
36352;DHT22;22382;44.768;17.206;2024-03-23T06:25:30;10.70;99.90
36352;DHT22;22382;44.768;17.206;2024-03-23T06:27:56;10.60;99.90
36352;DHT22;22382;44.768;17.206;2024-03-23T06:30:24;10.70;99.90
36352;DHT22;22382;44.768;17.206;2024-03-23T06:32:50;10.80;99.90
36352;DHT22;22382;44.768;17.206;2024-03-23T06:35:16;11.00;99.90
36352;DHT22;22382;44.768;17.206;2024-03-23T06:37:42;11.20;99.90
36352;DHT22;22382;44.768;17.206;2024-03-23T06:40:09;11.40;99.90
36352;DHT22;22382;44.768;17.206;2024-03-23T06:42:36;11.70;99.90
36352;DHT22;22382;44.768;17.206;2024-03-23T06:45:03;11.80;99.90
36352;DHT22;22382;44.768;17.206;2024-03-23T06:47:32;11.90;99.90
36352;DHT22;22382;44.768;17.206;2024-03-23T06:49:59;12.20;99.90
36352;DHT22;22382;44.768;17.206;2024-03-23T06:52:28;12.50;99.90
36352;DHT22;22382;44.768;17.206;2024-03-23T06:54:54;12.90;99.90
36352;DHT22;22382;44.768;17.206;2024-03-23T06:57:20;13.20;99.90
36352;DHT22;22382;44.768;17.206;2024-03-23T06:59:46;13.40;99.90
36352;DHT22;22382;44.768;17.206;2024-03-23T07:02:12;13.70;99.90
36352;DHT22;22382;44.768;17.206;2024-03-23T07:04:38;14.10;99.90
36352;DHT22;22382;44.768;17.206;2024-03-23T07:07:07;14.10;99.90
36352;DHT22;22382;44.768;17.206;2024-03-23T07:09:33;14.30;99.00
36352;DHT22;22382;44.768;17.206;2024-03-23T07:11:59;14.40;98.60
36352;DHT22;22382;44.768;17.206;2024-03-23T07:14:25;14.70;97.70
36352;DHT22;22382;44.768;17.206;2024-03-23T07:16:52;14.80;97.20
36352;DHT22;22382;44.768;17.206;2024-03-23T07:19:18;14.80;96.90
36352;DHT22;22382;44.768;17.206;2024-03-23T07:21:44;14.80;96.60
36352;DHT22;22382;44.768;17.206;2024-03-23T07:24:11;14.90;96.10
36352;DHT22;22382;44.768;17.206;2024-03-23T07:26:37;14.90;95.80
36352;DHT22;22382;44.768;17.206;2024-03-23T07:29:04;14.90;95.20
36352;DHT22;22382;44.768;17.206;2024-03-23T07:31:30;15.00;94.80
36352;DHT22;22382;44.768;17.206;2024-03-23T07:33:56;15.30;94.40
36352;DHT22;22382;44.768;17.206;2024-03-23T07:36:22;15.60;93.30
36352;DHT22;22382;44.768;17.206;2024-03-23T07:38:49;15.70;93.20
36352;DHT22;22382;44.768;17.206;2024-03-23T07:41:17;15.70;90.20
36352;DHT22;22382;44.768;17.206;2024-03-23T07:43:44;15.80;90.00
36352;DHT22;22382;44.768;17.206;2024-03-23T07:46:11;16.10;86.90
36352;DHT22;22382;44.768;17.206;2024-03-23T07:48:38;16.10;84.20
36352;DHT22;22382;44.768;17.206;2024-03-23T07:51:16;16.30;83.70
36352;DHT22;22382;44.768;17.206;2024-03-23T07:53:44;16.60;82.40
36352;DHT22;22382;44.768;17.206;2024-03-23T07:56:11;16.90;82.30
36352;DHT22;22382;44.768;17.206;2024-03-23T07:58:37;17.30;79.30
36352;DHT22;22382;44.768;17.206;2024-03-23T08:01:09;17.30;77.40
36352;DHT22;22382;44.768;17.206;2024-03-23T08:03:36;17.30;76.90
36352;DHT22;22382;44.768;17.206;2024-03-23T08:06:19;17.40;76.10
36352;DHT22;22382;44.768;17.206;2024-03-23T08:08:50;17.70;75.20
36352;DHT22;22382;44.768;17.206;2024-03-23T08:11:17;17.80;73.10
36352;DHT22;22382;44.768;17.206;2024-03-23T08:13:45;18.10;71.50
36352;DHT22;22382;44.768;17.206;2024-03-23T08:16:11;18.20;71.40
36352;DHT22;22382;44.768;17.206;2024-03-23T08:18:39;18.40;71.10
36352;DHT22;22382;44.768;17.206;2024-03-23T08:21:06;18.50;69.70
36352;DHT22;22382;44.768;17.206;2024-03-23T08:23:34;18.60;69.00
36352;DHT22;22382;44.768;17.206;2024-03-23T08:26:03;18.80;69.60
36352;DHT22;22382;44.768;17.206;2024-03-23T08:28:29;18.90;68.50
36352;DHT22;22382;44.768;17.206;2024-03-23T08:30:56;19.00;67.50
36352;DHT22;22382;44.768;17.206;2024-03-23T08:33:23;19.00;67.80
36352;DHT22;22382;44.768;17.206;2024-03-23T08:35:54;19.10;65.30
36352;DHT22;22382;44.768;17.206;2024-03-23T08:38:22;19.20;65.10
36352;DHT22;22382;44.768;17.206;2024-03-23T08:40:56;19.30;63.70
36352;DHT22;22382;44.768;17.206;2024-03-23T08:43:22;19.30;64.10
36352;DHT22;22382;44.768;17.206;2024-03-23T08:45:48;19.40;63.50
36352;DHT22;22382;44.768;17.206;2024-03-23T08:48:15;19.50;62.20
36352;DHT22;22382;44.768;17.206;2024-03-23T08:50:41;19.50;61.80
36352;DHT22;22382;44.768;17.206;2024-03-23T08:53:08;19.60;60.70
36352;DHT22;22382;44.768;17.206;2024-03-23T08:55:34;19.60;60.80
36352;DHT22;22382;44.768;17.206;2024-03-23T08:58:01;19.60;61.70
36352;DHT22;22382;44.768;17.206;2024-03-23T09:00:27;19.70;61.50
36352;DHT22;22382;44.768;17.206;2024-03-23T09:02:53;19.80;60.30
36352;DHT22;22382;44.768;17.206;2024-03-23T09:05:21;19.80;59.00
36352;DHT22;22382;44.768;17.206;2024-03-23T09:07:47;19.80;60.00
36352;DHT22;22382;44.768;17.206;2024-03-23T09:10:14;20.00;60.20
36352;DHT22;22382;44.768;17.206;2024-03-23T09:12:40;20.00;59.10
36352;DHT22;22382;44.768;17.206;2024-03-23T09:15:06;20.10;59.40
36352;DHT22;22382;44.768;17.206;2024-03-23T09:17:33;20.10;59.00
36352;DHT22;22382;44.768;17.206;2024-03-23T09:19:59;20.30;59.00
36352;DHT22;22382;44.768;17.206;2024-03-23T09:22:26;20.30;59.90
36352;DHT22;22382;44.768;17.206;2024-03-23T09:24:52;20.40;58.60
36352;DHT22;22382;44.768;17.206;2024-03-23T09:27:18;20.40;56.80
36352;DHT22;22382;44.768;17.206;2024-03-23T09:29:44;20.30;57.00
36352;DHT22;22382;44.768;17.206;2024-03-23T09:32:11;20.40;57.30
36352;DHT22;22382;44.768;17.206;2024-03-23T09:34:37;20.50;54.70
36352;DHT22;22382;44.768;17.206;2024-03-23T09:37:03;20.60;56.00
36352;DHT22;22382;44.768;17.206;2024-03-23T09:39:29;20.60;56.00
36352;DHT22;22382;44.768;17.206;2024-03-23T09:41:58;20.70;57.00
36352;DHT22;22382;44.768;17.206;2024-03-23T09:44:24;20.60;56.10
36352;DHT22;22382;44.768;17.206;2024-03-23T09:46:52;20.60;54.70
36352;DHT22;22382;44.768;17.206;2024-03-23T09:49:18;20.60;55.10
36352;DHT22;22382;44.768;17.206;2024-03-23T09:51:44;20.70;55.60
36352;DHT22;22382;44.768;17.206;2024-03-23T09:54:10;20.90;55.40
36352;DHT22;22382;44.768;17.206;2024-03-23T09:56:37;20.90;55.10
36352;DHT22;22382;44.768;17.206;2024-03-23T09:59:03;21.00;54.00
36352;DHT22;22382;44.768;17.206;2024-03-23T10:01:30;21.10;53.00
36352;DHT22;22382;44.768;17.206;2024-03-23T10:03:56;21.10;54.80
36352;DHT22;22382;44.768;17.206;2024-03-23T10:06:23;21.10;54.70
36352;DHT22;22382;44.768;17.206;2024-03-23T10:08:52;21.20;52.80
36352;DHT22;22382;44.768;17.206;2024-03-23T10:11:20;21.30;52.10
36352;DHT22;22382;44.768;17.206;2024-03-23T10:13:47;21.30;51.70
36352;DHT22;22382;44.768;17.206;2024-03-23T10:16:24;21.30;52.30
36352;DHT22;22382;44.768;17.206;2024-03-23T10:18:50;21.40;51.10
36352;DHT22;22382;44.768;17.206;2024-03-23T10:21:17;21.50;51.80
36352;DHT22;22382;44.768;17.206;2024-03-23T10:23:44;21.60;50.50
36352;DHT22;22382;44.768;17.206;2024-03-23T10:28:57;21.60;51.50
36352;DHT22;22382;44.768;17.206;2024-03-23T10:31:29;21.60;52.00
36352;DHT22;22382;44.768;17.206;2024-03-23T10:33:56;21.60;51.60
36352;DHT22;22382;44.768;17.206;2024-03-23T10:36:23;21.60;50.00
36352;DHT22;22382;44.768;17.206;2024-03-23T10:38:54;21.70;51.00
36352;DHT22;22382;44.768;17.206;2024-03-23T10:41:20;21.90;50.30
36352;DHT22;22382;44.768;17.206;2024-03-23T10:43:47;22.00;52.20
36352;DHT22;22382;44.768;17.206;2024-03-23T10:46:14;22.00;50.20
36352;DHT22;22382;44.768;17.206;2024-03-23T10:48:40;22.00;50.30
36352;DHT22;22382;44.768;17.206;2024-03-23T10:51:10;21.90;49.70
36352;DHT22;22382;44.768;17.206;2024-03-23T10:53:37;21.80;50.20
36352;DHT22;22382;44.768;17.206;2024-03-23T10:56:04;21.90;49.90
36352;DHT22;22382;44.768;17.206;2024-03-23T10:58:40;22.00;48.80
36352;DHT22;22382;44.768;17.206;2024-03-23T11:01:07;22.10;48.80
36352;DHT22;22382;44.768;17.206;2024-03-23T11:03:38;22.10;48.00
36352;DHT22;22382;44.768;17.206;2024-03-23T11:06:05;22.30;47.50
36352;DHT22;22382;44.768;17.206;2024-03-23T11:08:33;22.30;48.00
36352;DHT22;22382;44.768;17.206;2024-03-23T11:11:22;22.40;49.00
36352;DHT22;22382;44.768;17.206;2024-03-23T11:13:53;22.30;48.00
36352;DHT22;22382;44.768;17.206;2024-03-23T11:16:27;22.50;47.70
36352;DHT22;22382;44.768;17.206;2024-03-23T11:22:05;22.60;50.10
36352;DHT22;22382;44.768;17.206;2024-03-23T11:24:32;22.80;50.20
36352;DHT22;22382;44.768;17.206;2024-03-23T11:26:59;22.80;48.20
36352;DHT22;22382;44.768;17.206;2024-03-23T11:29:27;22.80;48.80
36352;DHT22;22382;44.768;17.206;2024-03-23T11:31:55;23.10;48.60
36352;DHT22;22382;44.768;17.206;2024-03-23T11:34:22;23.10;48.50
36352;DHT22;22382;44.768;17.206;2024-03-23T11:36:49;23.10;47.30
36352;DHT22;22382;44.768;17.206;2024-03-23T11:39:19;23.10;47.80
36352;DHT22;22382;44.768;17.206;2024-03-23T11:41:50;23.10;47.80
36352;DHT22;22382;44.768;17.206;2024-03-23T11:44:24;23.10;47.10
36352;DHT22;22382;44.768;17.206;2024-03-23T11:46:51;23.40;47.50
36352;DHT22;22382;44.768;17.206;2024-03-23T11:49:28;23.40;48.00
36352;DHT22;22382;44.768;17.206;2024-03-23T11:51:56;23.50;49.00
36352;DHT22;22382;44.768;17.206;2024-03-23T11:54:26;23.50;47.50
36352;DHT22;22382;44.768;17.206;2024-03-23T11:57:03;23.70;47.80
36352;DHT22;22382;44.768;17.206;2024-03-23T11:59:37;23.80;47.50
36352;DHT22;22382;44.768;17.206;2024-03-23T12:02:07;23.60;47.60
36352;DHT22;22382;44.768;17.206;2024-03-23T12:04:34;23.60;47.70
36352;DHT22;22382;44.768;17.206;2024-03-23T12:07:21;23.60;47.80
36352;DHT22;22382;44.768;17.206;2024-03-23T12:10:03;23.50;47.80
36352;DHT22;22382;44.768;17.206;2024-03-23T12:12:29;23.50;48.20
36352;DHT22;22382;44.768;17.206;2024-03-23T12:15:06;23.50;48.10
36352;DHT22;22382;44.768;17.206;2024-03-23T12:17:36;23.40;46.50
36352;DHT22;22382;44.768;17.206;2024-03-23T12:20:02;23.40;46.70
36352;DHT22;22382;44.768;17.206;2024-03-23T12:22:29;23.40;47.30
36352;DHT22;22382;44.768;17.206;2024-03-23T12:24:58;23.40;46.30
36352;DHT22;22382;44.768;17.206;2024-03-23T12:27:24;23.50;46.50
36352;DHT22;22382;44.768;17.206;2024-03-23T12:29:50;23.60;46.30
36352;DHT22;22382;44.768;17.206;2024-03-23T12:32:16;23.60;46.80
36352;DHT22;22382;44.768;17.206;2024-03-23T12:34:42;23.50;46.20
36352;DHT22;22382;44.768;17.206;2024-03-23T12:37:09;23.40;46.60
36352;DHT22;22382;44.768;17.206;2024-03-23T12:39:35;23.60;46.30
36352;DHT22;22382;44.768;17.206;2024-03-23T12:42:04;23.70;46.10
36352;DHT22;22382;44.768;17.206;2024-03-23T12:44:31;23.80;45.50
36352;DHT22;22382;44.768;17.206;2024-03-23T12:46:57;23.90;45.30
36352;DHT22;22382;44.768;17.206;2024-03-23T12:49:23;24.00;45.00
36352;DHT22;22382;44.768;17.206;2024-03-23T12:51:56;23.80;44.40
36352;DHT22;22382;44.768;17.206;2024-03-23T12:54:23;23.70;46.00
36352;DHT22;22382;44.768;17.206;2024-03-23T12:56:49;23.50;45.30
36352;DHT22;22382;44.768;17.206;2024-03-23T12:59:15;23.40;44.60
36352;DHT22;22382;44.768;17.206;2024-03-23T13:01:42;23.40;44.90
36352;DHT22;22382;44.768;17.206;2024-03-23T13:04:12;23.50;44.70
36352;DHT22;22382;44.768;17.206;2024-03-23T13:06:38;23.60;46.10
36352;DHT22;22382;44.768;17.206;2024-03-23T13:09:04;23.80;46.60
36352;DHT22;22382;44.768;17.206;2024-03-23T13:11:31;23.80;45.50
36352;DHT22;22382;44.768;17.206;2024-03-23T13:13:57;23.90;43.90
36352;DHT22;22382;44.768;17.206;2024-03-23T13:16:24;24.10;44.80
36352;DHT22;22382;44.768;17.206;2024-03-23T13:18:50;24.10;44.50
36352;DHT22;22382;44.768;17.206;2024-03-23T13:21:16;24.00;44.10
36352;DHT22;22382;44.768;17.206;2024-03-23T13:23:42;23.80;46.10
36352;DHT22;22382;44.768;17.206;2024-03-23T13:26:13;23.60;44.90
36352;DHT22;22382;44.768;17.206;2024-03-23T13:28:41;23.70;45.70
36352;DHT22;22382;44.768;17.206;2024-03-23T13:31:07;23.80;46.10
36352;DHT22;22382;44.768;17.206;2024-03-23T13:33:34;23.90;47.20
36352;DHT22;22382;44.768;17.206;2024-03-23T13:36:00;24.00;46.50
36352;DHT22;22382;44.768;17.206;2024-03-23T13:38:27;24.00;45.80
36352;DHT22;22382;44.768;17.206;2024-03-23T13:40:55;23.70;45.60
36352;DHT22;22382;44.768;17.206;2024-03-23T13:43:23;23.60;45.70
36352;DHT22;22382;44.768;17.206;2024-03-23T13:45:59;23.50;45.40
36352;DHT22;22382;44.768;17.206;2024-03-23T13:48:26;23.30;46.40
36352;DHT22;22382;44.768;17.206;2024-03-23T13:50:59;23.10;46.90
36352;DHT22;22382;44.768;17.206;2024-03-23T13:53:26;23.00;47.90
36352;DHT22;22382;44.768;17.206;2024-03-23T13:55:52;22.90;46.70
36352;DHT22;22382;44.768;17.206;2024-03-23T13:58:19;22.80;46.40
36352;DHT22;22382;44.768;17.206;2024-03-23T14:00:45;22.70;47.10
36352;DHT22;22382;44.768;17.206;2024-03-23T14:03:12;22.70;47.60
36352;DHT22;22382;44.768;17.206;2024-03-23T14:05:39;22.50;49.30
36352;DHT22;22382;44.768;17.206;2024-03-23T14:08:07;22.40;47.60
36352;DHT22;22382;44.768;17.206;2024-03-23T14:10:33;22.40;49.00
36352;DHT22;22382;44.768;17.206;2024-03-23T14:12:59;22.30;48.60
36352;DHT22;22382;44.768;17.206;2024-03-23T14:15:26;22.30;48.80
36352;DHT22;22382;44.768;17.206;2024-03-23T14:17:53;22.20;49.10
36352;DHT22;22382;44.768;17.206;2024-03-23T14:20:23;22.10;47.50
36352;DHT22;22382;44.768;17.206;2024-03-23T14:22:50;22.00;48.20
36352;DHT22;22382;44.768;17.206;2024-03-23T14:25:16;22.00;47.80
36352;DHT22;22382;44.768;17.206;2024-03-23T14:27:46;21.90;49.60
36352;DHT22;22382;44.768;17.206;2024-03-23T14:30:12;21.90;49.30
36352;DHT22;22382;44.768;17.206;2024-03-23T14:32:39;21.80;50.30
36352;DHT22;22382;44.768;17.206;2024-03-23T14:35:06;21.80;49.90
36352;DHT22;22382;44.768;17.206;2024-03-23T14:37:38;21.80;49.10
36352;DHT22;22382;44.768;17.206;2024-03-23T14:40:07;21.70;50.00
36352;DHT22;22382;44.768;17.206;2024-03-23T14:42:33;21.70;50.00
36352;DHT22;22382;44.768;17.206;2024-03-23T14:44:59;21.80;49.50
36352;DHT22;22382;44.768;17.206;2024-03-23T14:47:26;21.70;50.40
36352;DHT22;22382;44.768;17.206;2024-03-23T14:49:52;21.70;49.70
36352;DHT22;22382;44.768;17.206;2024-03-23T14:52:19;21.50;50.40
36352;DHT22;22382;44.768;17.206;2024-03-23T14:54:46;21.60;50.30
36352;DHT22;22382;44.768;17.206;2024-03-23T14:57:12;21.70;50.80
36352;DHT22;22382;44.768;17.206;2024-03-23T14:59:39;21.70;50.70
36352;DHT22;22382;44.768;17.206;2024-03-23T15:02:07;21.60;50.30
36352;DHT22;22382;44.768;17.206;2024-03-23T15:04:34;21.60;51.10
36352;DHT22;22382;44.768;17.206;2024-03-23T15:07:00;21.50;50.80
36352;DHT22;22382;44.768;17.206;2024-03-23T15:09:26;21.50;51.20
36352;DHT22;22382;44.768;17.206;2024-03-23T15:11:53;21.50;50.40
36352;DHT22;22382;44.768;17.206;2024-03-23T15:14:21;21.60;50.40
36352;DHT22;22382;44.768;17.206;2024-03-23T15:16:47;21.80;50.40
36352;DHT22;22382;44.768;17.206;2024-03-23T15:19:15;21.70;49.80
36352;DHT22;22382;44.768;17.206;2024-03-23T15:21:43;21.70;50.00
36352;DHT22;22382;44.768;17.206;2024-03-23T15:24:10;21.70;50.40
36352;DHT22;22382;44.768;17.206;2024-03-23T15:26:37;21.60;50.70
36352;DHT22;22382;44.768;17.206;2024-03-23T15:29:03;21.50;51.10
36352;DHT22;22382;44.768;17.206;2024-03-23T15:31:37;21.50;49.90
36352;DHT22;22382;44.768;17.206;2024-03-23T15:34:03;21.30;50.30
36352;DHT22;22382;44.768;17.206;2024-03-23T15:36:30;21.20;50.20
36352;DHT22;22382;44.768;17.206;2024-03-23T15:38:57;21.10;51.10
36352;DHT22;22382;44.768;17.206;2024-03-23T15:41:23;21.00;50.90
36352;DHT22;22382;44.768;17.206;2024-03-23T15:43:51;20.90;51.20
36352;DHT22;22382;44.768;17.206;2024-03-23T15:46:17;20.80;51.20
36352;DHT22;22382;44.768;17.206;2024-03-23T15:48:45;20.70;51.80
36352;DHT22;22382;44.768;17.206;2024-03-23T15:51:13;20.70;52.10
36352;DHT22;22382;44.768;17.206;2024-03-23T15:53:39;20.60;50.80
36352;DHT22;22382;44.768;17.206;2024-03-23T15:56:06;20.70;51.60
36352;DHT22;22382;44.768;17.206;2024-03-23T15:58:33;20.60;50.70
36352;DHT22;22382;44.768;17.206;2024-03-23T16:01:08;20.70;50.90
36352;DHT22;22382;44.768;17.206;2024-03-23T16:03:35;20.70;51.30
36352;DHT22;22382;44.768;17.206;2024-03-23T16:06:03;20.60;51.60
36352;DHT22;22382;44.768;17.206;2024-03-23T16:08:30;20.50;51.10
36352;DHT22;22382;44.768;17.206;2024-03-23T16:11:06;20.40;51.70
36352;DHT22;22382;44.768;17.206;2024-03-23T16:13:33;20.30;51.80
36352;DHT22;22382;44.768;17.206;2024-03-23T16:16:04;20.20;52.50
36352;DHT22;22382;44.768;17.206;2024-03-23T16:18:37;20.10;51.60
36352;DHT22;22382;44.768;17.206;2024-03-23T16:21:07;20.10;52.30